Current | Forecast
Updated: 7:00 AM CET on December 12, 2017
Observed at Jerez de la Frontera, Spain
Temperature 4°C
Windchill 1°C
Humidity 93%
Dew Point 3°C
Wind NNW at 13 km/h
Pressure 1014 hPa (Rising)
Conditions Clear
Visibility -
UV N/A
Clouds
Yesterday's Maximum 17°C
Yesterday's Minimum 8°C approx.
Yesterday's Heating Degree Days 11 approx.
Sunrise8:27 AM CET
Sunset6:08 PM CET
Moon Rise2:49 AM CET
Moon Set3:01 PM CET
Moon PhaseMoon Phase
Waning Crescent
Raw METARMETAR LEJR 120600Z 34007KT CAVOK 04/03 Q1014


Monday
. High: 87° F.
Tuesday
. High: 80° F.
Wednesday
. High: 77° F.
Thursday
. High: 84° F.
Friday
. High: 86° F.
Saturday
. High: 87° F.
Sunday
. High: 95° F.
Monday
. High: 93° F.

Click here for Marine Information
Scientific forecaster discussion (NWS)

Units: English | Metric

Find the Weather for any City, State or Zipcode, or Country:

U.S. State List | Severe Weather | Tropical Storms | Ski Conditions
United States | Canada | Central America | South America | Asia | Europe | Australia | Africa | Islands

Weather Underground

© Copyright 2017
The Weather Company, LLC